This is the latest recevied weather packets stored in our database for station/object EA3IBE-10. If no packets are shown the sender has not sent any weather packets the latest 10 day(s).
| Time | Temp. | Humidity | Pressure | Rain* | Wind** | Luminosity | Snow |
|---|---|---|---|---|---|---|---|
| 1777301348 | 26.11° C | 42% | 1015.2 hPa | - | - | - | - |
| 1777298948 | 25.56° C | 45% | 1015.2 hPa | - | - | - | - |
| 1777296548 | 27.78° C | 41% | 1015.6 hPa | - | - | - | - |
| 1777294148 | 27.78° C | 42% | 1016 hPa | - | - | - | - |
| 1777291748 | 27.78° C | 43% | 1016.3 hPa | - | - | - | - |
| 1777289348 | 27.22° C | 46% | 1016.4 hPa | - | - | - | - |
| 1777286948 | 28.89° C | 40% | 1016.6 hPa | - | - | - | - |
| 1777284548 | 28.89° C | 41% | 1016.8 hPa | - | - | - | - |
| 1777282159 | 30° C | 39% | 1017.1 hPa | - | - | - | - |
| 1777282147 | 30° C | 39% | 1017.1 hPa | - | - | - | - |
| 1777279759 | 31.11° C | 37% | 1017.1 hPa | - | - | - | - |
| 1777279747 | 31.11° C | 37% | 1017.1 hPa | - | - | - | - |
| 1777277347 | 32.22° C | 37% | 1017.3 hPa | - | - | - | - |
| 1777274947 | 26.67° C | 46% | 1017.3 hPa | - | - | - | - |
| 1777272559 | 21.11° C | 80% | 1017.1 hPa | - | - | - | - |
| 1777272547 | 21.11° C | 80% | 1017.1 hPa | - | - | - | - |
| 1777270147 | 18.89° C | 94% | 1016.9 hPa | - | - | - | - |
| 1777267747 | 17.22° C | 100% | 1016.5 hPa | - | - | - | - |
| 1777265347 | 16.67° C | 100% | 1016.3 hPa | - | - | - | - |
| 1777262947 | 16.67° C | 100% | 1016 hPa | - | - | - | - |
| 1777260546 | 16.67° C | 100% | 1016 hPa | - | - | - | - |
| 1777258147 | 16.67° C | 100% | 1016.2 hPa | - | - | - | - |
| 1777255746 | 16.67° C | 100% | 1016.1 hPa | - | - | - | - |
| 1777253346 | 17.22° C | 100% | 1016.1 hPa | - | - | - | - |
| 1777250946 | 17.22° C | 100% | 1016.4 hPa | - | - | - | - |
* Rain since midnight (hover to see other rain measurements)
** Current wind speed in m/s (hover to see current wind gust speed)